Time;durP1;ratioP1;P1;durP2;ratioP2;P2;SDS_P1;SDS_P2;PMS_P1;PMS_P2;Temp;Humidity;BMP_temperature;BMP_pressure;BME280_temperature;BME280_humidity;BME280_pressure;Samples;Min_cycle;Max_cycle;Signal;HPM_P1;HPM_P2
2022/04/14 00:00:12;;;;;;;8.85;5.38;;;12.40;99.90;;;;;;5016285;28;20124;-65
2022/04/14 00:02:38;;;;;;;5.72;4.97;;;12.40;99.90;;;;;;5017586;28;20047;-66
2022/04/14 00:05:04;;;;;;;9.57;5.90;;;12.40;99.90;;;;;;5009581;28;20045;-65
2022/04/14 00:07:30;;;;;;;5.65;4.30;;;12.40;99.90;;;;;;5010303;28;20057;-66
2022/04/14 00:09:55;;;;;;;4.97;4.18;;;12.40;99.90;;;;;;5018413;28;20049;-65
2022/04/14 00:12:21;;;;;;;6.18;4.35;;;12.40;99.90;;;;;;5023836;28;20053;-65
2022/04/14 00:14:47;;;;;;;8.57;5.45;;;12.30;99.90;;;;;;4999883;28;20057;-65
2022/04/14 00:17:12;;;;;;;9.15;4.78;;;12.30;99.90;;;;;;5026476;28;20038;-65
2022/04/14 00:19:39;;;;;;;9.30;4.50;;;12.30;99.90;;;;;;5027924;28;20041;-65
2022/04/14 00:22:05;;;;;;;5.95;4.20;;;12.30;99.90;;;;;;5032659;28;20554;-66
2022/04/14 00:24:30;;;;;;;7.47;4.57;;;12.30;99.90;;;;;;5010406;28;20053;-65
2022/04/14 00:26:56;;;;;;;13.65;5.40;;;12.20;99.90;;;;;;5020426;28;20051;-65
2022/04/14 00:29:21;;;;;;;6.18;4.00;;;12.20;99.90;;;;;;5014888;28;20056;-65
2022/04/14 00:31:47;;;;;;;5.00;4.30;;;12.20;99.90;;;;;;5015545;28;20045;-65
2022/04/14 00:34:13;;;;;;;8.20;5.32;;;12.20;99.90;;;;;;5010103;28;20101;-65
2022/04/14 00:36:38;;;;;;;5.35;4.18;;;12.20;99.90;;;;;;5002513;28;20049;-65
2022/04/14 00:39:04;;;;;;;7.45;5.15;;;12.20;99.90;;;;;;5011418;28;20837;-65
2022/04/14 00:41:29;;;;;;;9.52;5.38;;;12.10;99.90;;;;;;4999074;28;20772;-65
2022/04/14 00:43:55;;;;;;;7.55;5.22;;;12.20;99.90;;;;;;5009047;28;20159;-65
2022/04/14 00:46:21;;;;;;;6.57;4.93;;;12.10;99.90;;;;;;4999601;28;20780;-65
2022/04/14 00:48:49;;;;;;;11.48;5.88;;;12.10;99.90;;;;;;5021518;28;21019;-65
2022/04/14 00:51:15;;;;;;;7.35;4.70;;;12.10;99.90;;;;;;5008749;28;20060;-65
2022/04/14 00:53:41;;;;;;;9.95;4.88;;;12.00;99.90;;;;;;5002626;28;20057;-65
2022/04/14 00:56:07;;;;;;;8.00;6.13;;;12.10;99.90;;;;;;5022684;28;20860;-65
2022/04/14 00:58:34;;;;;;;8.15;4.90;;;12.00;99.90;;;;;;5017218;28;20120;-65
2022/04/14 01:01:01;;;;;;;9.43;6.18;;;12.00;99.90;;;;;;5009883;28;20048;-65
2022/04/14 01:03:26;;;;;;;10.07;7.05;;;12.00;99.90;;;;;;5007013;28;20049;-65
2022/04/14 01:05:53;;;;;;;9.13;5.88;;;12.00;99.90;;;;;;5000443;28;20050;-65
2022/04/14 01:08:19;;;;;;;8.18;6.03;;;12.00;99.90;;;;;;5019611;28;20889;-65
2022/04/14 01:10:49;;;;;;;11.85;7.25;;;12.00;99.90;;;;;;5016592;28;20195;-66
2022/04/14 01:13:18;;;;;;;9.20;6.78;;;12.00;99.90;;;;;;5027513;28;20099;-65
2022/04/14 01:15:48;;;;;;;11.98;7.68;;;11.90;99.90;;;;;;5036647;28;20500;-65
2022/04/14 01:18:14;;;;;;;11.02;7.28;;;11.90;99.90;;;;;;5017986;28;20414;-65
2022/04/14 01:20:41;;;;;;;10.20;6.60;;;11.90;99.90;;;;;;5036053;28;20448;-65
2022/04/14 01:23:09;;;;;;;9.02;6.65;;;11.90;99.90;;;;;;5036620;28;20879;-65
2022/04/14 01:25:37;;;;;;;12.80;8.63;;;11.90;99.90;;;;;;5036468;28;20060;-65
2022/04/14 01:28:04;;;;;;;9.55;6.35;;;11.80;99.90;;;;;;5018773;28;20056;-65
2022/04/14 01:30:30;;;;;;;11.20;7.13;;;11.80;99.90;;;;;;5018365;28;20234;-65
2022/04/14 01:32:56;;;;;;;11.23;7.20;;;11.80;99.90;;;;;;5036175;28;20094;-65
2022/04/14 01:35:22;;;;;;;12.10;7.95;;;11.80;99.90;;;;;;5018694;28;20315;-65
2022/04/14 01:37:48;;;;;;;9.30;6.40;;;11.80;99.90;;;;;;5036728;28;20045;-65
2022/04/14 01:40:14;;;;;;;12.63;8.05;;;11.70;99.90;;;;;;5035705;28;20865;-65
2022/04/14 01:42:40;;;;;;;10.63;7.35;;;11.70;99.90;;;;;;5018449;28;20405;-65
2022/04/14 01:45:10;;;;;;;18.10;9.32;;;11.70;99.90;;;;;;5017384;28;20148;-65
2022/04/14 01:47:44;;;;;;;11.00;7.88;;;11.60;99.90;;;;;;5035819;28;20124;-65
2022/04/14 01:50:12;;;;;;;14.75;7.93;;;11.60;99.90;;;;;;5018052;28;20063;-65
2022/04/14 01:52:39;;;;;;;10.77;7.50;;;11.60;99.90;;;;;;5018320;28;20053;-66
2022/04/14 01:55:05;;;;;;;16.33;7.97;;;11.50;99.90;;;;;;5017974;28;20041;-67
2022/04/14 01:57:31;;;;;;;12.82;7.63;;;11.50;99.90;;;;;;5035821;28;20056;-66
2022/04/14 02:00:00;;;;;;;10.15;7.80;;;11.50;99.90;;;;;;4998772;28;20037;-66
2022/04/14 02:02:26;;;;;;;12.40;6.53;;;11.50;99.90;;;;;;5034284;28;20060;-65
2022/04/14 02:04:52;;;;;;;16.10;7.95;;;11.40;99.90;;;;;;5034824;28;20045;-65
2022/04/14 02:07:18;;;;;;;13.18;7.90;;;11.40;99.90;;;;;;5035710;28;20124;-65
2022/04/14 02:09:44;;;;;;;12.90;6.80;;;11.40;99.90;;;;;;5035278;28;20053;-65
2022/04/14 02:12:11;;;;;;;15.95;7.45;;;11.40;99.90;;;;;;5036142;28;20638;-65
2022/04/14 02:14:37;;;;;;;15.13;8.93;;;11.40;99.90;;;;;;5018025;28;20151;-65
2022/04/14 02:17:03;;;;;;;16.30;9.02;;;11.30;99.90;;;;;;5035013;28;20825;-65
2022/04/14 02:19:29;;;;;;;9.30;7.18;;;11.40;99.90;;;;;;5036180;28;20049;-65
2022/04/14 02:21:58;;;;;;;11.27;8.20;;;11.40;99.90;;;;;;5039590;28;20551;-65
2022/04/14 02:24:26;;;;;;;14.10;9.10;;;11.40;99.90;;;;;;5033082;28;20054;-65
2022/04/14 02:26:52;;;;;;;17.40;8.38;;;11.30;99.90;;;;;;5033590;28;20711;-65
2022/04/14 02:29:18;;;;;;;13.57;9.43;;;11.30;99.90;;;;;;5018347;28;20049;-65
2022/04/14 02:31:43;;;;;;;14.05;9.70;;;11.30;99.90;;;;;;5001212;28;20382;-65
2022/04/14 02:34:09;;;;;;;11.73;8.77;;;11.30;99.90;;;;;;5002018;28;20697;-65
2022/04/14 02:36:35;;;;;;;11.68;8.57;;;11.30;99.90;;;;;;5024343;28;20867;-65
2022/04/14 02:39:00;;;;;;;11.40;8.60;;;11.30;99.90;;;;;;5021343;28;20666;-65
2022/04/14 02:41:26;;;;;;;16.30;8.82;;;11.30;99.90;;;;;;5038714;28;20049;-65
2022/04/14 02:43:52;;;;;;;16.13;9.43;;;11.20;99.90;;;;;;5039420;28;20041;-65
2022/04/14 02:46:17;;;;;;;14.15;10.02;;;11.20;99.90;;;;;;5021085;28;20095;-65
2022/04/14 02:48:43;;;;;;;16.83;9.75;;;11.20;99.90;;;;;;5001132;28;20660;-65
2022/04/14 02:51:08;;;;;;;12.95;8.75;;;11.20;99.90;;;;;;5019296;28;20084;-65
2022/04/14 02:53:34;;;;;;;17.55;10.80;;;11.20;99.90;;;;;;5019672;28;20788;-65
2022/04/14 02:56:00;;;;;;;18.05;10.18;;;11.10;99.90;;;;;;4998181;28;20152;-65
2022/04/14 02:58:25;;;;;;;13.60;10.63;;;11.10;99.90;;;;;;4981698;28;20046;-65
2022/04/14 03:00:51;;;;;;;14.38;11.23;;;11.00;99.90;;;;;;4999647;28;20050;-65
2022/04/14 03:03:17;;;;;;;17.90;10.90;;;11.00;99.90;;;;;;4980499;28;20407;-65
2022/04/14 03:05:42;;;;;;;13.13;9.30;;;11.00;99.90;;;;;;4982141;28;20846;-65
2022/04/14 03:08:08;;;;;;;18.70;11.48;;;11.00;99.90;;;;;;4999122;28;20042;-65
2022/04/14 03:10:34;;;;;;;17.83;10.85;;;11.00;99.90;;;;;;4998250;28;20050;-65
2022/04/14 03:12:59;;;;;;;20.23;11.07;;;10.90;99.90;;;;;;4998596;28;20064;-65
2022/04/14 03:15:25;;;;;;;18.60;12.88;;;10.90;99.90;;;;;;4981262;28;20078;-65
2022/04/14 03:17:51;;;;;;;17.10;11.27;;;10.80;99.90;;;;;;4998028;28;20057;-65
2022/04/14 03:20:16;;;;;;;18.80;11.20;;;10.80;99.90;;;;;;4980918;28;20741;-65
2022/04/14 03:22:42;;;;;;;14.60;10.48;;;10.80;99.90;;;;;;4998664;28;20379;-65
2022/04/14 03:25:10;;;;;;;15.48;10.60;;;10.80;99.90;;;;;;4980652;28;20049;-65
2022/04/14 03:27:37;;;;;;;24.15;12.98;;;10.80;99.90;;;;;;4980669;28;20216;-65
2022/04/14 03:30:06;;;;;;;19.65;10.77;;;10.70;99.90;;;;;;4998676;28;20045;-65
2022/04/14 03:32:32;;;;;;;16.77;10.82;;;10.70;99.90;;;;;;4996801;28;20137;-65
2022/04/14 03:35:02;;;;;;;18.88;13.65;;;10.70;99.90;;;;;;4998435;28;20048;-64
2022/04/14 03:37:28;;;;;;;17.63;11.65;;;10.70;99.90;;;;;;4980791;28;20521;-64
2022/04/14 03:39:54;;;;;;;16.70;12.60;;;10.60;99.90;;;;;;5013365;28;20033;-64
2022/04/14 03:42:19;;;;;;;18.33;12.80;;;10.60;99.90;;;;;;5038175;28;20048;-65
2022/04/14 03:44:45;;;;;;;22.95;14.45;;;10.60;99.90;;;;;;5037733;28;20052;-65
2022/04/14 03:47:10;;;;;;;17.08;12.98;;;10.50;99.90;;;;;;5038572;28;20045;-65
2022/04/14 03:49:36;;;;;;;18.48;12.95;;;10.50;99.90;;;;;;5038624;28;20049;-64
2022/04/14 03:52:02;;;;;;;28.40;14.85;;;10.60;99.90;;;;;;5020206;28;20052;-65
2022/04/14 03:54:28;;;;;;;20.77;12.90;;;10.50;99.90;;;;;;5020489;28;20043;-65
2022/04/14 03:56:53;;;;;;;19.42;12.10;;;10.40;99.90;;;;;;5038478;28;20093;-64
2022/04/14 03:59:19;;;;;;;18.95;13.00;;;10.40;99.90;;;;;;5037818;28;20060;-65
2022/04/14 04:01:44;;;;;;;17.48;12.23;;;10.40;99.90;;;;;;5018832;28;20086;-64
2022/04/14 04:04:10;;;;;;;17.17;12.50;;;10.30;99.90;;;;;;4998750;28;20045;-65
2022/04/14 04:06:35;;;;;;;17.90;12.65;;;10.30;99.90;;;;;;4998281;28;20913;-65
2022/04/14 04:09:01;;;;;;;16.40;11.80;;;10.30;99.90;;;;;;4981321;28;20870;-65
2022/04/14 04:11:26;;;;;;;23.60;12.23;;;10.20;99.90;;;;;;4998699;28;20056;-65
2022/04/14 04:13:52;;;;;;;18.73;11.73;;;10.20;99.90;;;;;;4985196;28;20052;-65
2022/04/14 04:16:18;;;;;;;19.80;14.05;;;10.20;99.90;;;;;;5018249;28;20050;-65
2022/04/14 04:18:44;;;;;;;18.40;12.45;;;10.20;99.90;;;;;;5016693;28;20045;-65
2022/04/14 04:21:09;;;;;;;15.20;10.65;;;10.10;99.90;;;;;;5015585;28;20110;-65
2022/04/14 04:23:35;;;;;;;16.60;12.18;;;10.00;99.90;;;;;;5017684;28;20082;-65
2022/04/14 04:26:00;;;;;;;22.63;13.70;;;10.00;99.90;;;;;;5017572;28;20056;-64
2022/04/14 04:28:30;;;;;;;17.55;11.98;;;9.90;99.90;;;;;;5016835;28;20055;-65
2022/04/14 04:30:56;;;;;;;19.92;12.73;;;9.90;99.90;;;;;;5016332;28;20053;-65
2022/04/14 04:33:22;;;;;;;21.33;14.85;;;9.80;99.90;;;;;;5018098;28;20045;-65
2022/04/14 04:35:50;;;;;;;19.65;13.02;;;9.80;99.90;;;;;;5016941;28;20126;-65
2022/04/14 04:38:15;;;;;;;20.10;13.77;;;9.80;99.90;;;;;;5017197;28;20128;-65
2022/04/14 04:40:41;;;;;;;22.52;14.65;;;9.80;99.90;;;;;;5017234;28;20847;-65
2022/04/14 04:43:06;;;;;;;20.23;12.73;;;9.80;99.90;;;;;;5016262;28;20055;-65
2022/04/14 04:45:32;;;;;;;20.95;14.48;;;9.70;99.90;;;;;;5017698;28;20116;-65
2022/04/14 04:47:57;;;;;;;24.10;14.07;;;9.60;99.90;;;;;;5016065;28;20048;-65
2022/04/14 04:50:23;;;;;;;20.30;12.73;;;9.60;99.90;;;;;;5017275;28;20053;-65
2022/04/14 04:52:48;;;;;;;17.58;12.65;;;9.60;99.90;;;;;;5015370;28;20049;-65
2022/04/14 04:55:14;;;;;;;19.17;11.65;;;9.60;99.90;;;;;;5014517;28;20582;-65
2022/04/14 04:57:39;;;;;;;13.93;11.52;;;9.60;99.90;;;;;;5016978;28;20060;-65
2022/04/14 05:00:05;;;;;;;19.38;12.40;;;9.60;99.90;;;;;;5016045;28;20080;-65
2022/04/14 05:02:31;;;;;;;21.25;13.98;;;9.50;99.90;;;;;;5000217;28;20087;-65
2022/04/14 05:04:57;;;;;;;18.27;12.23;;;9.50;99.90;;;;;;4977507;28;20457;-65
2022/04/14 05:07:23;;;;;;;18.25;13.30;;;9.60;99.90;;;;;;4976733;28;20274;-65
2022/04/14 05:09:48;;;;;;;21.30;13.82;;;9.60;99.90;;;;;;4976721;28;20053;-65
2022/04/14 05:12:14;;;;;;;22.85;13.88;;;9.50;99.90;;;;;;4979111;28;20050;-65
2022/04/14 05:14:39;;;;;;;22.60;15.00;;;9.50;99.90;;;;;;4997495;28;20086;-65
2022/04/14 05:17:05;;;;;;;20.63;13.98;;;9.50;99.90;;;;;;4996952;28;20060;-65
2022/04/14 05:19:31;;;;;;;22.80;14.55;;;9.50;99.90;;;;;;4996866;28;20052;-65
2022/04/14 05:21:57;;;;;;;23.30;16.55;;;9.50;99.90;;;;;;4996875;28;20863;-65
2022/04/14 05:24:23;;;;;;;31.95;18.65;;;9.50;99.90;;;;;;4978337;28;20147;-65
2022/04/14 05:26:48;;;;;;;28.00;17.35;;;9.50;99.90;;;;;;4997016;28;20053;-65
2022/04/14 05:29:14;;;;;;;27.63;18.65;;;9.50;99.90;;;;;;4997090;28;20046;-64
2022/04/14 05:31:39;;;;;;;28.20;18.98;;;9.50;99.90;;;;;;4996588;28;20072;-65
2022/04/14 05:34:05;;;;;;;30.90;19.05;;;9.50;99.90;;;;;;4979346;28;20053;-65
2022/04/14 05:36:30;;;;;;;26.08;18.48;;;9.60;99.90;;;;;;4978749;28;20050;-65
2022/04/14 05:38:57;;;;;;;27.38;19.67;;;9.60;99.90;;;;;;4978480;28;20092;-65
2022/04/14 05:41:23;;;;;;;30.55;19.80;;;9.70;99.90;;;;;;4997217;28;20054;-65
2022/04/14 05:43:48;;;;;;;32.83;20.40;;;9.70;99.90;;;;;;4996830;28;20088;-65
2022/04/14 05:46:14;;;;;;;29.15;19.52;;;9.80;99.90;;;;;;4979123;28;20052;-65
2022/04/14 05:48:39;;;;;;;29.67;19.83;;;9.80;99.90;;;;;;5015450;28;20049;-65
2022/04/14 05:51:06;;;;;;;32.25;18.58;;;9.90;99.90;;;;;;5035935;28;20045;-65
2022/04/14 05:53:31;;;;;;;28.45;19.85;;;9.90;99.90;;;;;;5018158;28;20095;-65
2022/04/14 05:55:57;;;;;;;33.53;20.77;;;10.00;99.90;;;;;;5039595;28;20579;-65
2022/04/14 05:58:22;;;;;;;29.90;20.35;;;10.10;99.90;;;;;;5040351;28;20044;-65
2022/04/14 06:00:49;;;;;;;33.35;22.38;;;10.10;99.90;;;;;;5040769;28;20398;-65
2022/04/14 06:03:14;;;;;;;32.03;22.33;;;10.20;99.90;;;;;;4996224;28;20050;-65
2022/04/14 06:05:40;;;;;;;28.73;19.30;;;10.30;99.90;;;;;;5000210;28;20050;-65
2022/04/14 06:08:06;;;;;;;30.17;22.27;;;10.40;99.90;;;;;;4983135;28;20119;-65
2022/04/14 06:10:32;;;;;;;32.80;20.40;;;10.50;99.90;;;;;;5000699;28;20084;-65
2022/04/14 06:12:58;;;;;;;31.65;18.73;;;10.50;99.90;;;;;;5000084;28;20050;-65
2022/04/14 06:15:25;;;;;;;26.58;19.23;;;10.60;99.90;;;;;;4984095;28;20052;-65
2022/04/14 06:17:51;;;;;;;29.98;20.10;;;10.70;99.90;;;;;;5001542;28;20046;-65
2022/04/14 06:20:17;;;;;;;32.42;20.40;;;10.70;99.90;;;;;;5003774;28;20037;-65
2022/04/14 06:22:44;;;;;;;31.10;18.88;;;10.80;99.90;;;;;;5019548;28;20045;-65
2022/04/14 06:25:16;;;;;;;28.63;18.98;;;10.90;99.90;;;;;;5018983;28;20041;-65
2022/04/14 06:27:44;;;;;;;29.63;18.05;;;11.00;99.90;;;;;;5001583;28;20059;-65
2022/04/14 06:30:11;;;;;;;31.67;20.80;;;11.10;99.90;;;;;;5019351;28;20057;-65
2022/04/14 06:32:37;;;;;;;32.17;22.40;;;11.20;99.90;;;;;;5002191;28;20779;-65
2022/04/14 06:35:04;;;;;;;32.03;20.55;;;11.20;99.90;;;;;;5001548;28;20132;-65
2022/04/14 06:37:29;;;;;;;35.08;22.85;;;11.30;99.90;;;;;;5020260;28;20048;-65
2022/04/14 06:39:55;;;;;;;30.50;19.40;;;11.40;99.90;;;;;;5002640;28;20147;-65
2022/04/14 06:42:24;;;;;;;32.42;20.85;;;11.50;99.90;;;;;;5001968;28;20558;-65
2022/04/14 06:44:49;;;;;;;32.70;19.95;;;11.50;99.90;;;;;;5018647;28;20056;-65
2022/04/14 06:47:15;;;;;;;28.95;18.45;;;11.60;99.90;;;;;;5001754;28;20045;-64
2022/04/14 06:49:40;;;;;;;32.22;18.55;;;11.70;99.90;;;;;;5018444;28;20053;-65
2022/04/14 06:52:06;;;;;;;27.33;16.95;;;11.80;99.90;;;;;;5021227;28;20068;-65
2022/04/14 06:54:32;;;;;;;32.78;18.60;;;11.90;99.90;;;;;;5020957;28;20045;-64
2022/04/14 06:56:58;;;;;;;28.73;18.38;;;12.10;99.90;;;;;;5039214;28;20774;-65
2022/04/14 06:59:24;;;;;;;28.35;19.42;;;12.30;99.90;;;;;;5021474;28;20059;-65
2022/04/14 07:01:49;;;;;;;27.67;16.73;;;12.50;99.90;;;;;;5033381;28;20067;-65
2022/04/14 07:04:15;;;;;;;28.33;18.25;;;12.60;99.90;;;;;;4996541;28;20223;-65
2022/04/14 07:06:40;;;;;;;24.40;16.95;;;12.60;99.90;;;;;;4996639;28;20209;-65
2022/04/14 07:09:06;;;;;;;23.10;17.33;;;12.70;99.90;;;;;;5013662;28;20197;-65
2022/04/14 07:11:31;;;;;;;27.75;17.13;;;13.00;99.90;;;;;;5015045;28;20811;-66
2022/04/14 07:13:58;;;;;;;23.98;16.33;;;13.60;99.90;;;;;;4995055;28;20497;-66
2022/04/14 07:16:25;;;;;;;23.27;16.10;;;14.60;99.90;;;;;;5014495;28;20053;-66
2022/04/14 07:18:50;;;;;;;26.98;15.07;;;15.20;99.90;;;;;;5016062;28;20063;-66
2022/04/14 07:21:16;;;;;;;19.77;12.32;;;15.30;99.90;;;;;;5015822;28;20045;-65
2022/04/14 07:23:41;;;;;;;26.05;14.63;;;15.70;99.90;;;;;;4997231;28;20053;-65
2022/04/14 07:26:07;;;;;;;22.23;13.70;;;16.30;99.90;;;;;;4997711;28;20056;-66
2022/04/14 07:28:32;;;;;;;19.98;13.48;;;17.30;99.90;;;;;;4997681;28;20049;-65
2022/04/14 07:30:58;;;;;;;21.75;14.10;;;17.90;99.90;;;;;;5014368;28;20084;-66
2022/04/14 07:33:24;;;;;;;18.52;13.10;;;18.80;99.90;;;;;;5017018;28;20479;-66
2022/04/14 07:35:51;;;;;;;19.65;11.88;;;19.10;99.90;;;;;;5016959;28;20057;-66
2022/04/14 07:38:16;;;;;;;18.48;12.80;;;18.80;99.90;;;;;;5016378;28;20044;-66
2022/04/14 07:40:42;;;;;;;16.17;11.70;;;19.20;99.90;;;;;;5015746;28;20413;-66
2022/04/14 07:43:07;;;;;;;17.52;12.07;;;18.90;99.90;;;;;;4999248;28;20049;-66
2022/04/14 07:45:33;;;;;;;18.80;12.18;;;19.60;99.90;;;;;;5017622;28;20049;-66
2022/04/14 07:47:58;;;;;;;17.23;11.35;;;20.50;99.90;;;;;;5022066;28;20140;-66
2022/04/14 07:50:24;;;;;;;15.82;11.95;;;20.70;99.90;;;;;;5020064;28;20053;-66
2022/04/14 07:52:55;;;;;;;20.38;12.65;;;21.30;99.90;;;;;;5019669;28;20549;-66
2022/04/14 07:55:27;;;;;;;18.95;12.07;;;21.70;99.90;;;;;;5038062;28;20250;-66
2022/04/14 07:57:54;;;;;;;16.10;11.40;;;22.20;97.60;;;;;;5019627;28;20515;-66
2022/04/14 08:00:20;;;;;;;13.80;11.55;;;22.70;98.20;;;;;;5020104;28;20067;-66
2022/04/14 08:02:53;;;;;;;13.88;11.13;;;22.60;97.40;;;;;;5028920;28;20396;-67
2022/04/14 08:05:27;;;;;;;15.20;11.60;;;22.80;95.60;;;;;;5017755;28;20045;-66
2022/04/14 08:07:52;;;;;;;13.98;10.98;;;23.10;96.50;;;;;;5018913;28;20038;-66
2022/04/14 08:10:18;;;;;;;13.77;11.10;;;23.30;95.70;;;;;;5018482;28;20107;-66
2022/04/14 08:12:44;;;;;;;16.98;11.43;;;23.40;93.10;;;;;;5017724;28;20088;-66
2022/04/14 08:15:12;;;;;;;13.57;10.90;;;23.10;94.80;;;;;;5018304;28;20168;-66
2022/04/14 08:17:39;;;;;;;12.20;9.93;;;23.40;94.40;;;;;;5016963;28;20485;-66
2022/04/14 08:20:05;;;;;;;15.50;11.43;;;23.40;93.50;;;;;;5017805;28;20053;-66
2022/04/14 08:23:01;;;;;;;13.95;11.50;;;23.70;93.20;;;;;;5018427;28;20640;-65
2022/04/14 08:25:32;;;;;;;17.80;11.93;;;23.60;85.60;;;;;;5018543;28;20092;-67
2022/04/14 08:27:58;;;;;;;17.15;12.77;;;23.60;91.40;;;;;;5017155;28;20053;-67
2022/04/14 08:30:25;;;;;;;16.50;11.82;;;23.40;91.30;;;;;;4999368;28;20618;-66
2022/04/14 08:32:52;;;;;;;12.93;11.23;;;23.30;91.60;;;;;;5018218;28;20733;-67
2022/04/14 08:35:19;;;;;;;15.55;12.07;;;23.80;91.10;;;;;;4998598;28;20058;-67
2022/04/14 08:37:46;;;;;;;16.30;10.70;;;24.00;90.80;;;;;;4999280;28;20061;-67
2022/04/14 08:40:16;;;;;;;16.05;11.68;;;24.20;90.10;;;;;;5015239;28;20111;-67
2022/04/14 08:42:50;;;;;;;16.88;12.45;;;24.20;84.50;;;;;;4999361;28;20144;-67
2022/04/14 08:45:17;;;;;;;15.10;12.25;;;24.10;84.40;;;;;;4999147;28;20122;-67
2022/04/14 08:47:43;;;;;;;15.75;11.95;;;23.90;88.30;;;;;;5000112;28;20081;-67
2022/04/14 08:50:12;;;;;;;18.80;13.43;;;24.00;87.80;;;;;;5034735;28;20199;-67
2022/04/14 08:52:39;;;;;;;15.55;12.15;;;23.80;84.60;;;;;;4999784;28;20110;-67
2022/04/14 08:55:08;;;;;;;18.60;13.27;;;23.50;83.30;;;;;;5017390;28;20069;-67
2022/04/14 08:57:38;;;;;;;14.02;12.45;;;23.70;86.30;;;;;;4999533;28;20136;-67
2022/04/14 09:00:06;;;;;;;16.48;11.73;;;23.40;84.20;;;;;;5017294;28;20473;-67
2022/04/14 09:02:33;;;;;;;15.48;12.32;;;23.70;86.50;;;;;;4992160;28;20045;-68
2022/04/14 09:04:59;;;;;;;18.50;13.30;;;24.10;86.80;;;;;;4979990;28;20099;-67
2022/04/14 09:07:25;;;;;;;21.73;14.18;;;24.20;86.40;;;;;;4997896;28;20073;-67
2022/04/14 09:09:51;;;;;;;15.45;12.82;;;24.20;85.70;;;;;;4979044;28;20165;-67
2022/04/14 09:12:17;;;;;;;14.35;12.40;;;24.40;86.10;;;;;;4996624;28;20050;-67
2022/04/14 09:14:43;;;;;;;17.35;13.13;;;24.50;85.20;;;;;;4997688;28;20060;-66
2022/04/14 09:17:09;;;;;;;17.73;14.30;;;24.40;84.70;;;;;;4997002;28;20045;-67
2022/04/14 09:19:36;;;;;;;16.50;12.75;;;23.40;85.10;;;;;;4997629;28;20620;-67
2022/04/14 09:22:07;;;;;;;14.88;12.15;;;22.70;86.40;;;;;;4997507;28;20057;-66
2022/04/14 09:24:47;;;;;;;14.10;11.57;;;22.50;86.50;;;;;;4996943;28;20057;-66
2022/04/14 09:27:31;;;;;;;19.17;12.85;;;21.50;86.50;;;;;;4997435;28;20048;-67
2022/04/14 09:29:59;;;;;;;16.83;12.95;;;21.00;87.60;;;;;;4996353;28;20078;-66
2022/04/14 09:32:44;;;;;;;14.73;11.70;;;21.00;89.70;;;;;;4997560;28;20041;-66
2022/04/14 09:35:18;;;;;;;14.35;11.60;;;21.00;87.70;;;;;;4979559;28;20152;-66
2022/04/14 09:37:43;;;;;;;13.90;10.90;;;21.40;87.80;;;;;;4997077;28;20126;-66
2022/04/14 09:40:09;;;;;;;12.73;9.30;;;21.40;86.50;;;;;;4979166;28;20049;-66
2022/04/14 09:42:38;;;;;;;14.80;9.75;;;21.10;88.00;;;;;;4997409;28;20046;-66
2022/04/14 09:45:19;;;;;;;13.20;9.02;;;21.20;87.80;;;;;;4997264;28;20548;-66
2022/04/14 09:47:45;;;;;;;14.30;9.70;;;21.50;84.30;;;;;;5001570;28;20050;-66
2022/04/14 09:50:35;;;;;;;9.45;7.38;;;22.00;86.40;;;;;;5037332;28;20430;-66
2022/04/14 09:53:15;;;;;;;12.52;6.88;;;21.20;84.00;;;;;;5034358;28;20078;-66
2022/04/14 09:55:42;;;;;;;10.55;7.50;;;21.00;84.70;;;;;;5017682;28;20144;-65
2022/04/14 09:58:26;;;;;;;9.18;6.88;;;20.40;86.00;;;;;;5014990;28;20057;-67
2022/04/14 10:00:58;;;;;;;9.48;6.55;;;19.90;86.40;;;;;;5013374;28;20867;-66
2022/04/14 10:03:25;;;;;;;8.40;6.63;;;20.20;88.90;;;;;;4999293;28;20053;-66
2022/04/14 10:05:56;;;;;;;7.38;5.93;;;20.00;89.30;;;;;;4975870;28;20064;-66
2022/04/14 10:08:24;;;;;;;9.40;6.85;;;19.70;89.60;;;;;;4976811;28;20062;-66
2022/04/14 10:11:03;;;;;;;7.05;6.18;;;20.60;89.60;;;;;;4993188;28;20060;-67
2022/04/14 10:13:35;;;;;;;9.50;5.88;;;21.10;88.70;;;;;;4975647;28;20100;-66
2022/04/14 10:16:00;;;;;;;8.00;5.25;;;21.90;86.70;;;;;;4994045;28;20054;-64
2022/04/14 10:18:26;;;;;;;6.57;5.10;;;22.20;86.80;;;;;;4993972;28;20147;-66
2022/04/14 10:20:52;;;;;;;5.50;4.78;;;22.80;85.30;;;;;;4975330;28;20059;-66
2022/04/14 10:23:17;;;;;;;7.13;4.90;;;22.60;83.90;;;;;;4994752;28;20508;-66
2022/04/14 10:25:43;;;;;;;7.50;4.80;;;21.80;83.80;;;;;;5000930;28;20528;-66
2022/04/14 10:28:13;;;;;;;7.45;4.38;;;21.20;87.20;;;;;;5013000;28;20038;-66
2022/04/14 10:30:40;;;;;;;7.13;4.78;;;21.70;83.90;;;;;;5013065;28;20142;-66
2022/04/14 10:33:06;;;;;;;7.18;5.00;;;21.30;85.40;;;;;;5008950;28;20428;-67
2022/04/14 10:35:32;;;;;;;6.18;4.43;;;20.70;84.60;;;;;;5013452;28;20084;-66
2022/04/14 10:38:11;;;;;;;5.28;4.72;;;20.80;87.10;;;;;;4993886;28;20665;-66
2022/04/14 10:40:42;;;;;;;3.30;2.90;;;21.80;83.40;;;;;;5013484;28;20042;-66
2022/04/14 10:43:09;;;;;;;7.78;3.78;;;22.40;83.30;;;;;;5016642;28;20367;-66
2022/04/14 10:45:55;;;;;;;4.25;3.72;;;22.60;82.90;;;;;;5017052;28;20049;-66
2022/04/14 10:48:38;;;;;;;4.07;3.45;;;22.50;80.10;;;;;;5016709;28;20144;-66
2022/04/14 10:51:25;;;;;;;5.35;3.80;;;22.40;79.50;;;;;;5016300;28;20870;-67
2022/04/14 10:53:55;;;;;;;3.88;3.50;;;22.10;81.40;;;;;;5014824;28;20084;-67
2022/04/14 10:56:42;;;;;;;5.47;3.45;;;21.50;82.10;;;;;;5001218;28;20497;-66
2022/04/14 10:59:14;;;;;;;5.07;3.80;;;20.70;82.50;;;;;;5019389;28;20049;-66
2022/04/14 11:01:52;;;;;;;5.00;3.63;;;20.20;85.50;;;;;;5014421;28;20146;-66
2022/04/14 11:04:44;;;;;;;5.70;4.38;;;19.90;86.10;;;;;;4998775;28;20060;-66
2022/04/14 11:07:12;;;;;;;5.13;3.38;;;19.80;87.80;;;;;;5016393;28;20092;-66
2022/04/14 11:09:38;;;;;;;6.53;4.63;;;20.00;88.40;;;;;;4997554;28;20084;-65
2022/04/14 11:12:05;;;;;;;6.53;3.45;;;19.90;88.00;;;;;;4998955;28;20491;-66
2022/04/14 11:14:43;;;;;;;7.40;4.30;;;19.90;88.50;;;;;;4997181;28;20100;-66
2022/04/14 11:20:20;;;;;;;8.32;4.13;;;20.00;85.70;;;;;;5015964;28;20221;-65
2022/04/14 11:23:04;;;;;;;5.20;2.30;;;20.00;87.80;;;;;;4986770;28;20058;-66
2022/04/14 11:25:38;;;;;;;4.72;2.45;;;20.30;83.20;;;;;;4994614;28;20049;-66
2022/04/14 11:28:24;;;;;;;4.18;3.00;;;20.50;86.10;;;;;;5015202;28;20049;-66
2022/04/14 11:30:51;;;;;;;4.78;2.70;;;20.50;85.50;;;;;;4992915;28;20823;-65
2022/04/14 11:33:28;;;;;;;4.50;3.20;;;20.00;86.60;;;;;;5017390;28;20119;-66
2022/04/14 11:36:05;;;;;;;4.30;3.58;;;19.70;88.30;;;;;;4997359;28;20056;-66
2022/04/14 11:38:53;;;;;;;4.10;3.53;;;19.30;88.90;;;;;;5017713;28;20042;-66
2022/04/14 11:41:45;;;;;;;8.55;3.28;;;19.00;90.00;;;;;;4997359;28;20037;-66
2022/04/14 11:44:30;;;;;;;4.53;2.60;;;18.80;90.20;;;;;;4997002;28;20058;-66
2022/04/14 11:46:59;;;;;;;5.10;2.80;;;18.70;90.80;;;;;;4998557;28;20060;-65
2022/04/14 11:49:32;;;;;;;4.43;2.30;;;18.70;90.80;;;;;;5019577;28;20045;-66
2022/04/14 11:52:05;;;;;;;4.63;2.83;;;18.70;90.00;;;;;;5013686;28;20122;-65
2022/04/14 11:54:31;;;;;;;4.60;1.92;;;18.60;90.00;;;;;;5013677;28;20052;-66
2022/04/14 11:57:06;;;;;;;3.33;2.42;;;18.70;90.20;;;;;;4997240;28;20103;-66
2022/04/14 11:59:50;;;;;;;3.60;2.55;;;19.00;90.20;;;;;;5014731;28;20060;-66
2022/04/14 12:02:21;;;;;;;2.97;1.83;;;19.00;88.00;;;;;;5014042;28;20046;-66
2022/04/14 12:04:49;;;;;;;2.50;2.10;;;19.10;88.70;;;;;;5014384;28;20061;-65
2022/04/14 12:07:15;;;;;;;3.08;2.30;;;19.00;89.00;;;;;;4998345;28;20775;-66
2022/04/14 12:09:41;;;;;;;6.15;1.80;;;19.10;89.60;;;;;;5015616;28;20625;-66
2022/04/14 12:12:08;;;;;;;3.80;2.22;;;19.10;88.50;;;;;;5015710;28;20048;-66
2022/04/14 12:14:34;;;;;;;2.45;1.92;;;19.30;87.10;;;;;;5016699;28;20119;-66
2022/04/14 12:17:00;;;;;;;7.65;2.03;;;19.20;87.10;;;;;;4999766;28;20049;-66
2022/04/14 12:19:51;;;;;;;3.15;1.85;;;19.30;87.60;;;;;;4999594;28;20680;-67
2022/04/14 12:22:16;;;;;;;3.20;2.90;;;19.20;86.20;;;;;;5017500;28;20053;-67
2022/04/14 12:24:53;;;;;;;3.72;2.63;;;19.20;88.50;;;;;;4999921;28;20476;-67
2022/04/14 12:27:23;;;;;;;4.47;2.90;;;19.30;89.50;;;;;;4999148;28;20053;-68
2022/04/14 12:29:53;;;;;;;4.13;3.38;;;19.50;89.70;;;;;;5016403;28;20409;-65
2022/04/14 12:32:24;;;;;;;5.95;3.45;;;19.20;90.20;;;;;;5016020;28;20036;-66
2022/04/14 12:34:49;;;;;;;4.90;3.67;;;19.00;90.10;;;;;;5017721;28;20047;-66
2022/04/14 12:37:18;;;;;;;9.10;3.78;;;19.00;90.60;;;;;;4999149;28;20050;-65
2022/04/14 12:39:55;;;;;;;7.10;3.40;;;18.80;90.20;;;;;;5016785;28;20179;-66
2022/04/14 12:42:41;;;;;;;4.57;2.38;;;18.80;90.10;;;;;;4999433;28;20096;-65